createdAt,value
2023-05-08T00:02:06.232Z,7.50
2023-05-08T00:04:34.628Z,7.38
2023-05-08T00:07:04.135Z,7.72
2023-05-08T00:09:32.501Z,7.18
2023-05-08T00:12:00.577Z,7.60
2023-05-08T00:14:29.064Z,6.95
2023-05-08T00:16:57.432Z,8.13
2023-05-08T00:19:25.900Z,8.13
2023-05-08T00:21:53.935Z,7.05
2023-05-08T00:24:23.727Z,6.75
2023-05-08T00:26:52.071Z,9.02
2023-05-08T00:29:20.060Z,7.63
2023-05-08T00:31:48.012Z,8.73
2023-05-08T00:34:16.702Z,8.25
2023-05-08T00:36:46.064Z,9.63
2023-05-08T00:39:14.291Z,7.97
2023-05-08T00:41:44.122Z,8.63
2023-05-08T00:44:12.911Z,7.75
2023-05-08T00:46:42.661Z,8.70
2023-05-08T00:49:14.857Z,8.93
2023-05-08T00:51:44.237Z,8.57
2023-05-08T00:54:12.772Z,9.20
2023-05-08T00:56:42.140Z,8.27
2023-05-08T00:59:15.317Z,8.40
2023-05-08T01:01:45.746Z,9.30
2023-05-08T01:04:13.756Z,11.85
2023-05-08T01:06:41.833Z,8.25
2023-05-08T01:09:10.313Z,9.30
2023-05-08T01:11:47.023Z,9.95
2023-05-08T01:14:23.022Z,9.50
2023-05-08T01:17:10.848Z,8.85
2023-05-08T01:20:06.340Z,8.02
2023-05-08T01:23:01.835Z,8.30
2023-05-08T01:26:12.485Z,8.93
2023-05-08T01:29:05.342Z,8.13
2023-05-08T01:31:48.653Z,9.35
2023-05-08T01:34:25.065Z,9.65
2023-05-08T01:36:59.433Z,9.73
2023-05-08T01:39:36.205Z,8.95
2023-05-08T01:42:08.908Z,9.60
2023-05-08T01:44:43.906Z,9.77
2023-05-08T01:47:13.181Z,8.68
2023-05-08T01:49:47.878Z,9.18
2023-05-08T01:52:21.997Z,9.60
2023-05-08T01:55:00.726Z,10.88
2023-05-08T01:57:31.151Z,9.70
2023-05-08T02:00:04.353Z,8.63
2023-05-08T02:02:38.579Z,9.68
2023-05-08T02:05:12.512Z,9.30
2023-05-08T02:07:42.247Z,10.48
2023-05-08T02:10:13.066Z,9.30
2023-05-08T02:12:42.458Z,9.13
2023-05-08T02:15:15.486Z,9.38
2023-05-08T02:17:46.141Z,9.10
2023-05-08T02:20:17.857Z,9.82
2023-05-08T02:22:49.311Z,9.85
2023-05-08T02:25:20.584Z,10.52
2023-05-08T02:27:50.569Z,8.95
2023-05-08T02:30:20.592Z,8.38
2023-05-08T02:32:50.879Z,9.10
2023-05-08T02:35:22.012Z,8.98
2023-05-08T02:37:54.804Z,9.75
2023-05-08T02:40:26.247Z,8.57
2023-05-08T02:42:54.860Z,8.43
2023-05-08T02:45:26.915Z,8.52
2023-05-08T02:48:06.855Z,8.05
2023-05-08T02:50:45.263Z,9.30
2023-05-08T02:53:20.029Z,8.38
2023-05-08T02:55:51.704Z,8.00
2023-05-08T02:58:25.637Z,8.25
2023-05-08T03:00:59.362Z,7.95
2023-05-08T03:03:34.605Z,9.60
2023-05-08T03:06:08.315Z,8.88
2023-05-08T03:08:38.588Z,8.45
2023-05-08T03:11:14.969Z,8.55
2023-05-08T03:13:46.148Z,8.23
2023-05-08T03:16:19.654Z,7.70
2023-05-08T03:18:53.917Z,8.30
2023-05-08T03:21:28.220Z,8.95
2023-05-08T03:23:59.280Z,7.88
2023-05-08T03:26:27.655Z,9.38
2023-05-08T03:28:57.452Z,9.13
2023-05-08T03:31:33.506Z,8.90
2023-05-08T03:34:03.435Z,9.48
2023-05-08T03:39:02.557Z,9.55
2023-05-08T03:41:30.878Z,9.82
2023-05-08T03:44:00.162Z,9.30
2023-05-08T03:46:28.637Z,10.35
2023-05-08T03:49:00.292Z,10.00
2023-05-08T03:51:29.480Z,10.80
2023-05-08T03:53:59.586Z,9.43
2023-05-08T03:56:29.802Z,16.48
2023-05-08T03:59:10.896Z,11.80
2023-05-08T04:01:42.121Z,8.65
2023-05-08T04:04:19.010Z,8.48
2023-05-08T04:06:54.154Z,9.40
2023-05-08T04:09:38.373Z,9.25
2023-05-08T04:12:15.557Z,11.55
2023-05-08T04:14:46.756Z,11.07
2023-05-08T04:17:19.278Z,10.73
2023-05-08T04:19:57.109Z,11.23
2023-05-08T04:22:27.877Z,10.15
2023-05-08T04:27:28.983Z,9.70
2023-05-08T04:29:57.978Z,10.73
2023-05-08T04:32:28.702Z,9.43
2023-05-08T04:34:57.152Z,10.40
2023-05-08T04:37:26.711Z,13.23
2023-05-08T04:39:59.052Z,10.55
2023-05-08T04:42:27.656Z,12.93
2023-05-08T04:44:59.661Z,12.50
2023-05-08T04:47:27.835Z,11.85
2023-05-08T04:49:55.867Z,13.98
2023-05-08T04:52:24.794Z,13.48
2023-05-08T04:54:52.692Z,14.15
2023-05-08T04:57:22.605Z,15.20
2023-05-08T04:59:52.748Z,14.50
2023-05-08T05:02:21.206Z,12.93
2023-05-08T05:04:51.194Z,13.88
2023-05-08T05:07:19.737Z,13.80
2023-05-08T05:09:48.337Z,13.87
2023-05-08T05:12:16.498Z,13.25
2023-05-08T05:14:48.543Z,12.38
2023-05-08T05:17:16.643Z,14.15
2023-05-08T05:19:44.596Z,13.98
2023-05-08T05:22:13.448Z,13.27
2023-05-08T05:24:42.215Z,14.20
2023-05-08T05:27:10.273Z,13.52
2023-05-08T05:29:39.513Z,12.93
2023-05-08T05:32:10.252Z,13.30
2023-05-08T05:34:39.603Z,12.32
2023-05-08T05:37:07.905Z,14.65
2023-05-08T05:39:37.855Z,13.82
2023-05-08T05:42:07.595Z,14.85
2023-05-08T05:44:35.756Z,12.32
2023-05-08T05:47:05.759Z,12.13
2023-05-08T05:49:36.371Z,13.00
2023-05-08T05:52:05.211Z,13.32
2023-05-08T05:54:33.596Z,12.13
2023-05-08T05:57:04.938Z,13.48
2023-05-08T05:59:33.007Z,13.63
2023-05-08T06:02:01.140Z,13.15
2023-05-08T06:04:29.781Z,13.93
2023-05-08T06:06:59.162Z,12.95
2023-05-08T06:09:27.555Z,14.43
2023-05-08T06:11:55.981Z,13.10
2023-05-08T06:14:24.554Z,12.15
2023-05-08T06:16:52.591Z,12.25
2023-05-08T06:19:21.574Z,13.20
2023-05-08T06:21:51.819Z,12.35
2023-05-08T06:24:23.095Z,15.48
2023-05-08T06:26:51.073Z,15.13
2023-05-08T06:29:19.461Z,13.30
2023-05-08T06:31:48.274Z,13.82
2023-05-08T06:34:16.220Z,12.13
2023-05-08T06:36:44.146Z,11.90
2023-05-08T06:39:12.961Z,13.38
2023-05-08T06:41:42.233Z,12.43
2023-05-08T06:44:10.803Z,11.65
2023-05-08T06:46:39.278Z,11.50
2023-05-08T06:49:07.307Z,11.57
2023-05-08T06:51:35.599Z,11.55
2023-05-08T06:54:08.350Z,11.60
2023-05-08T06:56:38.916Z,11.10
2023-05-08T06:59:09.477Z,12.93
2023-05-08T07:01:38.490Z,12.68
2023-05-08T07:04:06.640Z,12.60
2023-05-08T07:06:36.101Z,11.82
2023-05-08T07:09:04.482Z,12.18
2023-05-08T07:11:33.074Z,13.32
2023-05-08T07:14:01.733Z,11.77
2023-05-08T07:16:31.116Z,12.40
2023-05-08T07:21:28.359Z,11.75
2023-05-08T07:23:56.368Z,11.30
2023-05-08T07:26:24.317Z,11.73
2023-05-08T07:28:54.641Z,12.32
2023-05-08T07:31:22.910Z,12.60
2023-05-08T07:33:52.929Z,11.73
2023-05-08T07:36:21.775Z,13.02
2023-05-08T07:38:49.744Z,12.80
2023-05-08T07:41:18.157Z,12.73
2023-05-08T07:43:47.140Z,11.25
2023-05-08T07:46:18.804Z,12.30
2023-05-08T07:48:47.690Z,12.35
2023-05-08T07:51:17.048Z,11.40
2023-05-08T07:53:45.470Z,13.02
2023-05-08T07:56:13.880Z,12.77
2023-05-08T07:58:42.700Z,11.70
2023-05-08T08:01:10.643Z,12.73
2023-05-08T08:03:39.623Z,11.95
2023-05-08T08:06:07.835Z,11.48
2023-05-08T08:08:37.639Z,10.73
2023-05-08T08:11:06.353Z,10.65
2023-05-08T08:13:34.580Z,11.65
2023-05-08T08:16:04.232Z,11.10
2023-05-08T08:18:36.095Z,10.02
2023-05-08T08:21:06.766Z,10.63
2023-05-08T08:23:35.771Z,10.50
2023-05-08T08:26:05.611Z,10.98
2023-05-08T08:28:33.832Z,9.52
2023-05-08T08:31:03.602Z,9.18
2023-05-08T08:33:31.958Z,8.07
2023-05-08T08:35:59.930Z,9.90
2023-05-08T08:38:28.888Z,8.98
2023-05-08T08:40:56.839Z,9.20
2023-05-08T08:43:26.834Z,9.18
2023-05-08T08:45:55.369Z,9.60
2023-05-08T08:48:27.429Z,8.65
2023-05-08T08:51:04.289Z,9.35
2023-05-08T08:53:36.271Z,10.02
2023-05-08T08:56:09.361Z,10.05
2023-05-08T08:58:46.819Z,9.52
2023-05-08T09:01:18.354Z,9.40
2023-05-08T09:03:48.327Z,9.77
2023-05-08T09:06:19.848Z,10.75
2023-05-08T09:08:48.615Z,11.15
2023-05-08T09:11:17.092Z,10.43
2023-05-08T09:13:46.939Z,10.48
2023-05-08T09:16:15.004Z,10.00
2023-05-08T09:18:43.039Z,9.70
2023-05-08T09:21:12.057Z,9.10
2023-05-08T09:23:56.195Z,16.17
2023-05-08T09:26:33.774Z,11.77
2023-05-08T09:29:13.895Z,10.07
2023-05-08T09:31:45.016Z,10.52
2023-05-08T09:34:24.728Z,9.85
2023-05-08T09:36:53.644Z,10.95
2023-05-08T09:39:26.505Z,10.75
2023-05-08T09:42:00.190Z,9.68
2023-05-08T09:44:29.765Z,11.38
2023-05-08T09:47:12.722Z,10.07
2023-05-08T09:49:40.947Z,9.73
2023-05-08T09:52:09.544Z,10.35
2023-05-08T09:54:37.796Z,9.73
2023-05-08T09:57:14.088Z,9.75
2023-05-08T09:59:44.414Z,9.40
2023-05-08T10:04:40.935Z,10.75
2023-05-08T10:07:09.378Z,10.82
2023-05-08T10:09:49.707Z,11.52
2023-05-08T10:12:19.240Z,10.85
2023-05-08T10:14:48.618Z,10.23
2023-05-08T10:17:22.940Z,11.00
2023-05-08T10:19:53.788Z,9.40
2023-05-08T10:22:26.425Z,10.15
2023-05-08T10:24:58.561Z,10.02
2023-05-08T10:27:36.324Z,10.50
2023-05-08T10:30:06.600Z,12.52
2023-05-08T10:32:41.963Z,13.80
2023-05-08T10:35:12.130Z,10.32
2023-05-08T10:37:42.717Z,11.07
2023-05-08T10:40:12.159Z,11.00
2023-05-08T10:45:11.712Z,11.15
2023-05-08T10:47:55.302Z,12.57
2023-05-08T10:50:36.459Z,10.00
2023-05-08T10:53:08.323Z,9.85
2023-05-08T10:55:39.024Z,10.80
2023-05-08T10:58:12.099Z,10.23
2023-05-08T11:01:14.465Z,11.65
2023-05-08T11:03:45.538Z,10.93
2023-05-08T11:06:15.375Z,10.00
2023-05-08T11:08:54.938Z,10.43
2023-05-08T11:14:01.336Z,10.07
2023-05-08T11:17:08.497Z,9.65
2023-05-08T11:19:39.265Z,10.40
2023-05-08T11:22:24.531Z,12.00
2023-05-08T11:24:59.185Z,10.77
2023-05-08T11:28:05.573Z,10.57
2023-05-08T11:30:40.053Z,9.18
2023-05-08T11:33:31.815Z,9.45
2023-05-08T11:36:13.086Z,9.23
2023-05-08T11:38:41.407Z,10.20
2023-05-08T11:41:10.856Z,9.85
2023-05-08T11:44:15.205Z,9.52
2023-05-08T11:46:47.733Z,8.90
2023-05-08T11:49:19.643Z,9.15
2023-05-08T11:51:55.160Z,10.25
2023-05-08T11:54:24.690Z,10.18
2023-05-08T11:56:55.192Z,9.48
2023-05-08T11:59:23.584Z,12.02
2023-05-08T12:02:06.882Z,10.63
2023-05-08T12:04:44.609Z,10.48
2023-05-08T12:07:16.018Z,9.20
2023-05-08T12:09:44.165Z,9.70
2023-05-08T12:12:12.603Z,10.27
2023-05-08T12:14:40.546Z,9.60
2023-05-08T12:17:09.031Z,8.73
2023-05-08T12:19:37.329Z,9.80
2023-05-08T12:22:05.249Z,8.98
2023-05-08T12:24:35.728Z,9.00
2023-05-08T12:27:04.670Z,9.55
2023-05-08T12:29:37.664Z,9.57
2023-05-08T12:32:06.030Z,9.52
2023-05-08T12:34:34.079Z,9.45
2023-05-08T12:37:04.523Z,8.30
2023-05-08T12:39:38.492Z,8.27
2023-05-08T12:42:07.454Z,8.95
2023-05-08T12:44:35.410Z,10.00
2023-05-08T12:47:07.120Z,10.18
2023-05-08T12:49:35.529Z,8.90
2023-05-08T12:52:08.028Z,8.77
2023-05-08T12:54:41.543Z,8.18
2023-05-08T12:57:13.855Z,7.57
2023-05-08T12:59:43.206Z,8.30
2023-05-08T13:02:16.701Z,6.40
2023-05-08T13:04:45.327Z,7.25
2023-05-08T13:07:13.474Z,6.47
2023-05-08T13:09:57.590Z,7.20
2023-05-08T13:12:25.700Z,8.55
2023-05-08T13:14:54.071Z,7.38
2023-05-08T13:17:22.118Z,6.60
2023-05-08T13:19:50.086Z,6.10
2023-05-08T13:22:19.100Z,7.78
2023-05-08T13:24:48.395Z,8.20
2023-05-08T13:27:16.777Z,6.97
2023-05-08T13:29:45.222Z,6.43
2023-05-08T13:32:13.328Z,6.80
2023-05-08T13:34:47.619Z,6.88
2023-05-08T13:37:19.807Z,7.43
2023-05-08T13:39:49.145Z,6.97
2023-05-08T13:42:17.508Z,6.90
2023-05-08T13:44:45.509Z,7.60
2023-05-08T13:47:13.481Z,7.82
2023-05-08T13:49:42.351Z,7.10
2023-05-08T13:52:10.701Z,6.68
2023-05-08T13:54:39.131Z,6.53
2023-05-08T13:57:09.086Z,5.63
2023-05-08T13:59:37.060Z,6.32
2023-05-08T14:02:05.577Z,6.47
2023-05-08T14:04:33.900Z,7.60
2023-05-08T14:07:01.941Z,6.07
2023-05-08T14:09:30.901Z,6.60
2023-05-08T14:11:58.938Z,6.00
2023-05-08T14:14:28.756Z,6.60
2023-05-08T14:16:57.788Z,5.93
2023-05-08T14:19:25.735Z,5.80
2023-05-08T14:21:54.205Z,6.10
2023-05-08T14:24:22.672Z,5.68
2023-05-08T14:26:50.678Z,6.40
2023-05-08T14:29:19.379Z,6.65
2023-05-08T14:31:48.725Z,7.40
2023-05-08T14:34:17.296Z,6.85
2023-05-08T14:36:45.708Z,5.97
2023-05-08T14:39:13.684Z,6.10
2023-05-08T14:41:48.127Z,6.10
2023-05-08T14:44:28.393Z,5.68
2023-05-08T14:46:58.138Z,7.97
2023-05-08T14:49:36.616Z,7.95
2023-05-08T14:52:07.052Z,7.18
2023-05-08T14:54:35.328Z,7.63
2023-05-08T14:57:03.971Z,7.88
2023-05-08T14:59:32.448Z,7.53
2023-05-08T15:02:02.085Z,8.68
2023-05-08T15:04:31.274Z,7.70
2023-05-08T15:06:59.653Z,7.72
2023-05-08T15:09:28.030Z,7.95
2023-05-08T15:11:56.870Z,8.02
2023-05-08T15:14:25.300Z,7.63
2023-05-08T15:16:53.676Z,8.40
2023-05-08T15:19:23.477Z,8.10
2023-05-08T15:21:51.488Z,7.32
2023-05-08T15:24:19.396Z,7.70
2023-05-08T15:26:48.230Z,6.95
2023-05-08T15:29:16.157Z,6.22
2023-05-08T15:31:44.569Z,7.22
2023-05-08T15:34:12.966Z,6.80
2023-05-08T15:36:42.276Z,7.53
2023-05-08T15:41:39.852Z,7.72
2023-05-08T15:44:07.975Z,7.93
2023-05-08T15:46:35.938Z,8.63
2023-05-08T15:49:05.792Z,9.10
2023-05-08T15:51:33.780Z,8.60
2023-05-08T15:54:04.002Z,8.07
2023-05-08T15:56:32.687Z,9.70
2023-05-08T15:59:00.621Z,8.43
2023-05-08T16:01:29.628Z,9.13
2023-05-08T16:03:57.714Z,11.20
2023-05-08T16:06:26.250Z,8.93
2023-05-08T16:08:54.652Z,8.10
2023-05-08T16:11:24.038Z,7.65
2023-05-08T16:13:53.487Z,7.40
2023-05-08T16:16:22.529Z,7.75
2023-05-08T16:18:50.457Z,7.28
2023-05-08T16:21:18.838Z,8.30
2023-05-08T16:23:47.445Z,9.63
2023-05-08T16:26:16.578Z,10.15
2023-05-08T16:28:45.869Z,9.45
2023-05-08T16:33:43.471Z,11.10
2023-05-08T16:36:11.738Z,10.60
2023-05-08T16:38:39.712Z,11.10
2023-05-08T16:41:09.998Z,9.63
2023-05-08T16:43:38.091Z,8.43
2023-05-08T16:46:08.532Z,7.82
2023-05-08T16:48:37.003Z,9.75
2023-05-08T16:51:05.705Z,7.05
2023-05-08T16:53:33.715Z,8.98
2023-05-08T16:56:01.661Z,7.70
2023-05-08T16:58:29.627Z,7.47
2023-05-08T17:00:57.588Z,8.07
2023-05-08T17:03:27.532Z,6.80
2023-05-08T17:05:55.571Z,6.20
2023-05-08T17:08:23.547Z,5.70
2023-05-08T17:10:54.216Z,7.15
2023-05-08T17:13:22.193Z,6.22
2023-05-08T17:15:50.612Z,7.20
2023-05-08T17:18:19.067Z,8.27
2023-05-08T17:20:48.339Z,7.93
2023-05-08T17:25:44.522Z,7.20
2023-05-08T17:28:12.694Z,6.68
2023-05-08T17:30:40.859Z,6.50
2023-05-08T17:33:09.177Z,7.75
2023-05-08T17:35:37.174Z,11.07
2023-05-08T17:38:06.661Z,6.45
2023-05-08T17:40:34.630Z,5.60
2023-05-08T17:43:06.467Z,5.95
2023-05-08T17:45:34.745Z,8.40
2023-05-08T17:48:03.125Z,6.65
2023-05-08T17:50:32.321Z,5.03
2023-05-08T17:53:00.289Z,4.63
2023-05-08T17:55:31.704Z,4.78
2023-05-08T17:58:00.233Z,3.35
2023-05-08T18:00:28.123Z,4.07
2023-05-08T18:02:58.063Z,3.42
2023-05-08T18:05:29.427Z,3.63
2023-05-08T18:07:57.391Z,4.10
2023-05-08T18:10:25.816Z,2.97
2023-05-08T18:12:55.111Z,3.13
2023-05-08T18:17:53.545Z,3.50
2023-05-08T18:20:22.088Z,3.92
2023-05-08T18:22:51.057Z,3.70
2023-05-08T18:25:19.801Z,3.95
2023-05-08T18:27:50.035Z,2.90
2023-05-08T18:30:20.469Z,2.88
2023-05-08T18:32:48.458Z,3.97
2023-05-08T18:35:18.377Z,3.88
2023-05-08T18:37:46.360Z,3.30
2023-05-08T18:40:15.765Z,3.95
2023-05-08T18:42:44.277Z,3.47
2023-05-08T18:45:13.765Z,3.25
2023-05-08T18:47:43.130Z,3.40
2023-05-08T18:50:12.424Z,4.43
2023-05-08T18:52:40.809Z,3.88
2023-05-08T18:55:10.775Z,5.00
2023-05-08T18:57:39.232Z,5.60
2023-05-08T19:00:08.584Z,4.78
2023-05-08T19:02:37.151Z,5.13
2023-05-08T19:05:08.143Z,5.78
2023-05-08T19:07:36.318Z,8.10
2023-05-08T19:10:05.855Z,6.33
2023-05-08T19:12:33.813Z,6.60
2023-05-08T19:15:02.716Z,6.68
2023-05-08T19:17:30.696Z,7.22
2023-05-08T19:19:59.661Z,6.47
2023-05-08T19:22:28.912Z,7.13
2023-05-08T19:24:57.289Z,6.70
2023-05-08T19:27:25.698Z,7.95
2023-05-08T19:29:54.585Z,6.28
2023-05-08T19:32:22.917Z,6.45
2023-05-08T19:34:50.850Z,7.82
2023-05-08T19:37:19.309Z,6.82
2023-05-08T19:39:48.620Z,7.32
2023-05-08T19:42:16.603Z,6.72
2023-05-08T19:44:45.052Z,7.40
2023-05-08T19:47:13.700Z,7.78
2023-05-08T19:49:41.768Z,7.40
2023-05-08T19:52:09.961Z,8.45
2023-05-08T19:54:38.032Z,8.25
2023-05-08T19:57:08.338Z,8.02
2023-05-08T19:59:36.358Z,8.00
2023-05-08T20:02:05.323Z,6.45
2023-05-08T20:04:42.168Z,7.70
2023-05-08T20:07:20.543Z,6.75
2023-05-08T20:09:48.555Z,7.13
2023-05-08T20:12:17.892Z,7.80
2023-05-08T20:14:46.141Z,7.03
2023-05-08T20:17:14.911Z,6.00
2023-05-08T20:19:42.910Z,6.68
2023-05-08T20:22:12.505Z,6.10
2023-05-08T20:24:40.930Z,6.57
2023-05-08T20:27:08.910Z,6.47
2023-05-08T20:29:39.255Z,5.63
2023-05-08T20:34:36.794Z,5.93
2023-05-08T20:37:06.123Z,7.88
2023-05-08T20:39:34.181Z,7.03
2023-05-08T20:42:03.156Z,6.30
2023-05-08T20:44:31.904Z,6.55
2023-05-08T20:47:01.982Z,6.50
2023-05-08T20:49:30.056Z,8.50
2023-05-08T20:51:58.175Z,6.53
2023-05-08T20:54:26.197Z,7.30
2023-05-08T20:56:54.590Z,5.85
2023-05-08T20:59:23.559Z,6.15
2023-05-08T21:01:51.530Z,6.50
2023-05-08T21:04:22.159Z,5.30
2023-05-08T21:06:52.000Z,5.68
2023-05-08T21:09:20.888Z,4.40
2023-05-08T21:11:49.029Z,4.50
2023-05-08T21:14:17.105Z,6.10
2023-05-08T21:16:45.351Z,5.97
2023-05-08T21:19:17.168Z,5.22
2023-05-08T21:21:47.847Z,7.13
2023-05-08T21:24:16.508Z,4.60
2023-05-08T21:26:44.691Z,4.60
2023-05-08T21:29:13.607Z,5.15
2023-05-08T21:31:43.172Z,4.65
2023-05-08T21:34:12.390Z,4.72
2023-05-08T21:36:40.811Z,5.13
2023-05-08T21:39:10.180Z,5.18
2023-05-08T21:41:39.171Z,7.95
2023-05-08T21:44:07.137Z,5.70
2023-05-08T21:46:35.768Z,5.47
2023-05-08T21:49:04.741Z,4.93
2023-05-08T21:51:32.948Z,5.83
2023-05-08T21:54:01.461Z,5.38
2023-05-08T21:56:31.591Z,5.85
2023-05-08T21:58:59.538Z,5.85
2023-05-08T22:01:28.475Z,5.72
2023-05-08T22:03:56.616Z,6.13
2023-05-08T22:06:25.647Z,5.35
2023-05-08T22:08:53.791Z,5.07
2023-05-08T22:11:22.473Z,5.22
2023-05-08T22:13:51.886Z,5.82
2023-05-08T22:18:48.913Z,5.80
2023-05-08T22:21:16.892Z,5.25
2023-05-08T22:23:45.859Z,7.63
2023-05-08T22:26:14.021Z,5.45
2023-05-08T22:28:42.963Z,4.95
2023-05-08T22:31:12.711Z,4.68
2023-05-08T22:33:42.032Z,5.07
2023-05-08T22:36:10.790Z,5.47
2023-05-08T22:38:40.758Z,7.30
2023-05-08T22:41:09.978Z,6.28
2023-05-08T22:43:38.106Z,5.10
2023-05-08T22:46:07.258Z,8.38
2023-05-08T22:48:37.594Z,5.47
2023-05-08T22:51:06.662Z,5.00
2023-05-08T22:53:34.754Z,5.45
2023-05-08T22:56:03.912Z,7.22
2023-05-08T22:58:31.966Z,5.22
2023-05-08T23:01:01.147Z,5.00
2023-05-08T23:03:29.674Z,4.77
2023-05-08T23:05:59.121Z,5.32
2023-05-08T23:10:56.400Z,5.50
2023-05-08T23:13:24.621Z,5.80
2023-05-08T23:15:53.237Z,6.10
2023-05-08T23:18:21.736Z,5.00
2023-05-08T23:20:49.707Z,5.78
2023-05-08T23:23:20.105Z,4.80
2023-05-08T23:25:48.024Z,7.22
2023-05-08T23:28:16.892Z,6.05
2023-05-08T23:30:44.826Z,6.72
2023-05-08T23:45:52.272Z,7.80
2023-05-08T23:48:20.097Z,6.20
2023-05-08T23:50:48.137Z,5.13
2023-05-08T23:53:17.135Z,5.60
2023-05-08T23:55:44.906Z,7.63
2023-05-08T23:58:13.182Z,4.60
